createdAt,value
2022-09-03T00:00:40.436Z,8.98
2022-09-03T00:01:40.503Z,10.06
2022-09-03T00:02:40.498Z,8.73
2022-09-03T00:03:40.439Z,8.99
2022-09-03T00:04:40.432Z,8.19
2022-09-03T00:05:40.448Z,8.97
2022-09-03T00:06:42.432Z,9.08
2022-09-03T00:07:40.467Z,9.88
2022-09-03T00:08:40.767Z,8.94
2022-09-03T00:10:40.450Z,9.15
2022-09-03T00:11:40.444Z,8.88
2022-09-03T00:12:40.461Z,9.60
2022-09-03T00:13:40.468Z,9.82
2022-09-03T00:14:40.465Z,9.00
2022-09-03T00:15:40.578Z,9.15
2022-09-03T00:16:40.477Z,9.17
2022-09-03T00:17:40.487Z,8.64
2022-09-03T00:18:40.488Z,8.96
2022-09-03T00:19:40.489Z,9.19
2022-09-03T00:21:40.484Z,8.72
2022-09-03T00:22:40.471Z,8.81
2022-09-03T00:23:40.469Z,8.68
2022-09-03T00:24:40.486Z,7.86
2022-09-03T00:25:40.504Z,8.50
2022-09-03T00:26:40.490Z,8.63
2022-09-03T00:27:40.487Z,9.11
2022-09-03T00:28:40.484Z,8.80
2022-09-03T00:29:40.509Z,8.58
2022-09-03T00:30:40.489Z,8.67
2022-09-03T00:33:40.515Z,9.04
2022-09-03T00:36:40.530Z,8.25
2022-09-03T00:37:40.528Z,8.73
2022-09-03T00:38:40.542Z,8.96
2022-09-03T00:39:40.582Z,8.84
2022-09-03T00:40:40.549Z,8.64
2022-09-03T00:41:40.535Z,8.39
2022-09-03T00:42:40.530Z,7.96
2022-09-03T00:43:42.602Z,8.84
2022-09-03T00:44:40.563Z,9.18
2022-09-03T00:45:40.534Z,8.80
2022-09-03T00:46:40.611Z,10.02
2022-09-03T00:47:40.559Z,9.33
2022-09-03T00:48:40.565Z,9.16
2022-09-03T00:49:40.573Z,8.99
2022-09-03T00:50:40.570Z,9.80
2022-09-03T00:51:40.572Z,9.51
2022-09-03T00:52:40.577Z,9.28
2022-09-03T00:53:40.576Z,9.63
2022-09-03T00:54:40.553Z,8.45
2022-09-03T00:55:40.567Z,9.08
2022-09-03T00:56:40.582Z,8.60
2022-09-03T00:58:40.594Z,9.25
2022-09-03T00:59:40.592Z,8.65
2022-09-03T01:01:40.684Z,8.43
2022-09-03T01:02:40.672Z,8.12
2022-09-03T01:03:40.573Z,8.48
2022-09-03T01:04:40.580Z,8.64
2022-09-03T01:05:40.610Z,7.97
2022-09-03T01:06:40.581Z,7.63
2022-09-03T01:07:40.583Z,7.12
2022-09-03T01:08:40.597Z,7.62
2022-09-03T01:09:40.611Z,8.16
2022-09-03T01:10:40.626Z,7.01
2022-09-03T01:11:40.613Z,7.92
2022-09-03T01:12:40.612Z,7.22
2022-09-03T01:13:40.601Z,7.07
2022-09-03T01:14:40.631Z,7.17
2022-09-03T01:15:40.721Z,7.36
2022-09-03T01:16:40.612Z,7.99
2022-09-03T01:17:40.620Z,7.14
2022-09-03T01:18:40.619Z,6.56
2022-09-03T01:19:40.637Z,6.66
2022-09-03T01:20:42.762Z,7.25
2022-09-03T01:21:40.618Z,6.77
2022-09-03T01:22:40.814Z,7.12
2022-09-03T01:23:40.642Z,6.47
2022-09-03T01:26:40.663Z,6.94
2022-09-03T01:27:40.642Z,6.67
2022-09-03T01:28:40.652Z,6.03
2022-09-03T01:29:40.651Z,6.38
2022-09-03T01:34:40.662Z,7.01
2022-09-03T01:35:40.681Z,8.33
2022-09-03T01:36:40.668Z,8.19
2022-09-03T01:37:40.670Z,7.97
2022-09-03T01:38:40.672Z,6.13
2022-09-03T01:39:40.703Z,8.25
2022-09-03T01:40:40.697Z,7.69
2022-09-03T01:41:40.678Z,8.02
2022-09-03T01:42:40.734Z,7.76
2022-09-03T01:43:43.378Z,8.57
2022-09-03T01:45:45.100Z,8.27
2022-09-03T01:46:40.775Z,7.75
2022-09-03T01:47:40.710Z,8.41
2022-09-03T01:48:40.713Z,8.05
2022-09-03T01:49:40.713Z,7.87
2022-09-03T01:50:40.703Z,6.09
2022-09-03T01:51:40.697Z,5.41
2022-09-03T01:52:40.726Z,4.71
2022-09-03T01:53:40.714Z,4.26
2022-09-03T01:54:40.732Z,4.54
2022-09-03T01:55:40.742Z,3.82
2022-09-03T01:56:40.711Z,3.93
2022-09-03T01:57:43.018Z,4.06
2022-09-03T01:58:40.750Z,4.38
2022-09-03T01:59:40.730Z,4.44
2022-09-03T02:00:40.727Z,4.21
2022-09-03T02:01:40.776Z,4.25
2022-09-03T02:02:40.813Z,4.44
2022-09-03T02:03:41.032Z,4.71
2022-09-03T02:04:40.748Z,4.61
2022-09-03T02:05:40.750Z,4.76
2022-09-03T02:06:40.761Z,4.52
2022-09-03T02:07:40.742Z,5.00
2022-09-03T02:08:40.738Z,4.95
2022-09-03T02:09:40.748Z,4.62
2022-09-03T02:10:40.764Z,4.43
2022-09-03T02:11:40.758Z,4.69
2022-09-03T02:12:40.789Z,4.66
2022-09-03T02:13:40.774Z,4.43
2022-09-03T02:14:40.764Z,4.74
2022-09-03T02:15:40.861Z,5.35
2022-09-03T02:16:40.758Z,5.13
2022-09-03T02:17:40.773Z,4.84
2022-09-03T02:19:40.776Z,4.89
2022-09-03T02:20:40.787Z,5.16
2022-09-03T02:21:40.788Z,4.93
2022-09-03T02:22:40.793Z,5.35
2022-09-03T02:23:40.783Z,4.26
2022-09-03T02:24:40.782Z,5.05
2022-09-03T02:25:40.803Z,4.51
2022-09-03T02:26:40.793Z,4.37
2022-09-03T02:27:40.793Z,4.65
2022-09-03T02:28:40.789Z,4.14
2022-09-03T02:29:40.799Z,4.01
2022-09-03T02:30:40.903Z,3.56
2022-09-03T02:31:40.822Z,3.89
2022-09-03T02:32:40.803Z,4.19
2022-09-03T02:33:40.810Z,3.83
2022-09-03T02:34:43.172Z,4.47
2022-09-03T02:35:40.816Z,4.19
2022-09-03T02:37:40.831Z,4.13
2022-09-03T02:39:40.902Z,4.17
2022-09-03T02:40:40.856Z,4.45
2022-09-03T02:41:40.839Z,4.01
2022-09-03T02:42:40.851Z,3.77
2022-09-03T02:43:40.836Z,4.49
2022-09-03T02:44:40.850Z,4.47
2022-09-03T02:45:40.890Z,4.26
2022-09-03T02:46:40.852Z,4.46
2022-09-03T02:47:40.848Z,3.91
2022-09-03T02:48:40.933Z,4.50
2022-09-03T02:49:40.863Z,4.60
2022-09-03T02:50:40.854Z,4.14
2022-09-03T02:51:40.850Z,4.43
2022-09-03T02:52:40.851Z,4.24
2022-09-03T02:53:40.856Z,4.98
2022-09-03T02:54:40.868Z,4.09
2022-09-03T02:55:40.872Z,4.36
2022-09-03T02:56:40.869Z,4.19
2022-09-03T02:57:40.879Z,4.99
2022-09-03T02:58:40.889Z,4.38
2022-09-03T02:59:40.886Z,4.60
2022-09-03T03:00:40.887Z,4.54
2022-09-03T03:01:41.961Z,4.48
2022-09-03T03:02:40.948Z,5.00
2022-09-03T03:03:40.878Z,4.87
2022-09-03T03:04:40.917Z,5.22
2022-09-03T03:05:40.904Z,4.78
2022-09-03T03:06:40.898Z,4.96
2022-09-03T03:07:40.901Z,4.99
2022-09-03T03:08:40.895Z,5.08
2022-09-03T03:09:40.899Z,4.31
2022-09-03T03:10:40.931Z,4.63
2022-09-03T03:12:40.925Z,4.78
2022-09-03T03:13:40.934Z,4.81
2022-09-03T03:14:40.928Z,4.98
2022-09-03T03:15:40.956Z,4.90
2022-09-03T03:16:41.020Z,5.25
2022-09-03T03:17:40.925Z,4.51
2022-09-03T03:18:40.924Z,4.28
2022-09-03T03:19:40.945Z,4.97
2022-09-03T03:20:40.957Z,4.88
2022-09-03T03:21:40.929Z,4.62
2022-09-03T03:22:40.946Z,4.67
2022-09-03T03:23:40.941Z,4.69
2022-09-03T03:24:40.945Z,4.27
2022-09-03T03:25:40.954Z,4.16
2022-09-03T03:26:40.968Z,4.95
2022-09-03T03:27:40.948Z,4.52
2022-09-03T03:28:40.974Z,4.31
2022-09-03T03:29:40.959Z,4.53
2022-09-03T03:30:41.014Z,5.03
2022-09-03T03:31:40.963Z,4.32
2022-09-03T03:32:40.972Z,4.22
2022-09-03T03:33:40.962Z,4.34
2022-09-03T03:36:40.980Z,4.95
2022-09-03T03:37:40.995Z,4.85
2022-09-03T03:38:40.997Z,4.44
2022-09-03T03:40:40.989Z,4.50
2022-09-03T03:41:40.997Z,4.59
2022-09-03T03:44:40.999Z,4.18
2022-09-03T03:46:41.016Z,3.72
2022-09-03T03:49:41.000Z,4.09
2022-09-03T03:50:41.009Z,4.20
2022-09-03T03:51:41.001Z,3.54
2022-09-03T03:52:41.023Z,3.99
2022-09-03T03:54:41.013Z,3.51
2022-09-03T03:56:41.035Z,4.24
2022-09-03T03:57:41.031Z,4.29
2022-09-03T03:58:41.036Z,3.47
2022-09-03T04:00:41.061Z,3.21
2022-09-03T04:01:41.071Z,3.61
2022-09-03T04:02:41.047Z,4.00
2022-09-03T04:04:41.072Z,3.73
2022-09-03T04:05:46.149Z,3.75
2022-09-03T04:06:41.070Z,3.67
2022-09-03T04:07:41.057Z,3.29
2022-09-03T04:08:41.060Z,4.60
2022-09-03T04:09:41.061Z,4.01
2022-09-03T04:10:41.081Z,4.46
2022-09-03T04:11:41.066Z,4.22
2022-09-03T04:12:41.058Z,4.22
2022-09-03T04:13:41.087Z,4.82
2022-09-03T04:14:41.092Z,4.49
2022-09-03T04:15:41.085Z,4.39
2022-09-03T04:16:41.104Z,4.16
2022-09-03T04:17:41.082Z,5.01
2022-09-03T04:18:41.080Z,4.68
2022-09-03T04:19:41.080Z,4.28
2022-09-03T04:20:41.085Z,4.31
2022-09-03T04:21:41.083Z,4.53
2022-09-03T04:22:41.086Z,4.36
2022-09-03T04:23:41.102Z,4.36
2022-09-03T04:24:41.132Z,4.60
2022-09-03T04:25:43.738Z,4.28
2022-09-03T04:26:41.104Z,4.27
2022-09-03T04:27:41.125Z,4.41
2022-09-03T04:28:41.140Z,4.69
2022-09-03T04:29:41.109Z,4.31
2022-09-03T04:30:41.259Z,4.14
2022-09-03T04:31:41.105Z,4.46
2022-09-03T04:32:41.116Z,4.57
2022-09-03T04:33:41.142Z,4.31
2022-09-03T04:34:41.121Z,3.59
2022-09-03T04:35:41.119Z,3.86
2022-09-03T04:36:41.126Z,3.58
2022-09-03T04:37:41.122Z,3.46
2022-09-03T04:38:41.138Z,3.40
2022-09-03T04:39:41.225Z,3.56
2022-09-03T04:40:41.151Z,3.95
2022-09-03T04:41:41.134Z,4.34
2022-09-03T04:42:41.156Z,4.03
2022-09-03T04:43:41.140Z,3.72
2022-09-03T04:44:41.242Z,3.84
2022-09-03T04:45:41.198Z,4.22
2022-09-03T04:47:41.145Z,3.85
2022-09-03T04:48:41.154Z,4.34
2022-09-03T04:49:41.195Z,3.93
2022-09-03T04:50:41.188Z,3.14
2022-09-03T04:51:41.170Z,3.57
2022-09-03T04:52:41.170Z,4.44
2022-09-03T04:53:41.175Z,3.59
2022-09-03T04:55:41.184Z,3.37
2022-09-03T04:57:41.182Z,3.34
2022-09-03T04:58:41.203Z,2.91
2022-09-03T04:59:41.200Z,2.99
2022-09-03T05:00:41.273Z,3.05
2022-09-03T05:01:41.197Z,2.63
2022-09-03T05:03:41.197Z,2.77
2022-09-03T05:04:41.215Z,2.44
2022-09-03T05:05:41.202Z,3.32
2022-09-03T05:06:41.218Z,3.00
2022-09-03T05:07:41.211Z,3.14
2022-09-03T05:08:41.219Z,3.18
2022-09-03T05:09:41.219Z,3.01
2022-09-03T05:10:41.233Z,3.41
2022-09-03T05:11:41.237Z,3.31
2022-09-03T05:12:41.230Z,2.65
2022-09-03T05:13:41.232Z,2.66
2022-09-03T05:14:41.241Z,2.93
2022-09-03T05:15:41.234Z,2.88
2022-09-03T05:16:41.267Z,3.22
2022-09-03T05:17:41.232Z,2.71
2022-09-03T05:18:41.231Z,2.98
2022-09-03T05:19:41.241Z,2.75
2022-09-03T05:20:41.247Z,3.15
2022-09-03T05:21:41.258Z,2.86
2022-09-03T05:22:41.276Z,2.45
2022-09-03T05:23:41.248Z,2.60
2022-09-03T05:24:41.278Z,2.93
2022-09-03T05:25:41.249Z,2.81
2022-09-03T05:26:41.262Z,2.96
2022-09-03T05:27:41.272Z,3.38
2022-09-03T05:28:41.260Z,3.21
2022-09-03T05:29:41.252Z,2.97
2022-09-03T05:30:41.280Z,2.58
2022-09-03T05:31:41.302Z,2.92
2022-09-03T05:32:41.278Z,2.77
2022-09-03T05:33:41.275Z,2.66
2022-09-03T05:34:41.288Z,2.92
2022-09-03T05:35:41.289Z,2.69
2022-09-03T05:36:41.287Z,2.60
2022-09-03T05:37:41.279Z,2.14
2022-09-03T05:38:41.304Z,2.66
2022-09-03T05:39:44.098Z,2.72
2022-09-03T05:40:41.288Z,2.52
2022-09-03T05:41:41.289Z,2.58
2022-09-03T05:42:41.318Z,2.47
2022-09-03T05:43:41.301Z,2.75
2022-09-03T05:44:41.293Z,2.63
2022-09-03T05:45:41.364Z,2.92
2022-09-03T05:46:41.299Z,3.11
2022-09-03T05:47:41.324Z,2.70
2022-09-03T05:48:41.314Z,2.77
2022-09-03T05:49:41.323Z,2.53
2022-09-03T05:51:41.315Z,2.64
2022-09-03T05:52:41.316Z,2.67
2022-09-03T05:53:41.327Z,3.26
2022-09-03T05:54:41.333Z,2.96
2022-09-03T05:55:41.325Z,2.96
2022-09-03T05:56:41.342Z,2.19
2022-09-03T05:57:41.359Z,3.14
2022-09-03T05:58:41.345Z,2.77
2022-09-03T06:00:41.337Z,3.22
2022-09-03T06:01:41.430Z,2.39
2022-09-03T06:02:41.478Z,2.76
2022-09-03T06:03:41.511Z,2.33
2022-09-03T06:04:41.360Z,2.72
2022-09-03T06:05:41.383Z,2.64
2022-09-03T06:06:41.356Z,2.71
2022-09-03T06:07:41.376Z,2.45
2022-09-03T06:08:41.383Z,3.05
2022-09-03T06:09:41.373Z,2.42
2022-09-03T06:10:41.413Z,2.64
2022-09-03T06:11:41.380Z,4.03
2022-09-03T06:12:41.380Z,3.29
2022-09-03T06:13:41.379Z,3.44
2022-09-03T06:14:41.372Z,3.69
2022-09-03T06:15:41.385Z,3.23
2022-09-03T06:16:44.279Z,2.67
2022-09-03T06:18:41.382Z,2.61
2022-09-03T06:19:41.402Z,3.04
2022-09-03T06:20:41.404Z,2.83
2022-09-03T06:21:41.387Z,2.90
2022-09-03T06:22:41.418Z,3.11
2022-09-03T06:23:45.829Z,3.10
2022-09-03T06:24:41.405Z,3.80
2022-09-03T06:25:41.421Z,4.36
2022-09-03T06:26:42.956Z,3.63
2022-09-03T06:27:41.424Z,4.66
2022-09-03T06:28:41.438Z,4.23
2022-09-03T06:29:41.443Z,4.15
2022-09-03T06:30:41.454Z,3.83
2022-09-03T06:31:41.497Z,4.62
2022-09-03T06:32:41.445Z,4.27
2022-09-03T06:33:41.439Z,4.30
2022-09-03T06:34:41.424Z,3.90
2022-09-03T06:35:42.788Z,3.28
2022-09-03T06:36:41.493Z,4.48
2022-09-03T06:37:41.446Z,3.55
2022-09-03T06:38:41.448Z,3.32
2022-09-03T06:39:41.501Z,3.55
2022-09-03T06:40:41.477Z,3.10
2022-09-03T06:41:41.454Z,3.14
2022-09-03T06:42:41.466Z,3.34
2022-09-03T06:43:41.519Z,3.08
2022-09-03T06:44:41.457Z,3.28
2022-09-03T06:45:41.483Z,2.93
2022-09-03T06:46:41.464Z,3.46
2022-09-03T06:47:41.470Z,3.07
2022-09-03T06:48:41.464Z,2.95
2022-09-03T06:49:41.478Z,3.25
2022-09-03T06:50:41.470Z,3.30
2022-09-03T06:51:41.488Z,2.94
2022-09-03T06:52:41.473Z,3.27
2022-09-03T06:53:44.441Z,3.20
2022-09-03T06:54:41.504Z,3.30
2022-09-03T06:55:41.510Z,3.15
2022-09-03T06:56:41.660Z,2.94
2022-09-03T06:57:41.489Z,2.82
2022-09-03T06:58:41.489Z,3.51
2022-09-03T06:59:41.506Z,3.28
2022-09-03T07:00:41.563Z,3.11
2022-09-03T07:01:44.682Z,3.55
2022-09-03T07:02:44.763Z,3.11
2022-09-03T07:03:41.506Z,2.90
2022-09-03T07:04:41.518Z,3.05
2022-09-03T07:05:41.529Z,2.91
2022-09-03T07:06:41.528Z,3.21
2022-09-03T07:07:41.546Z,3.05
2022-09-03T07:08:41.530Z,2.91
2022-09-03T07:09:44.042Z,3.06
2022-09-03T07:10:41.536Z,2.82
2022-09-03T07:11:41.525Z,2.43
2022-09-03T07:12:41.545Z,2.36
2022-09-03T07:13:41.540Z,2.97
2022-09-03T07:14:41.560Z,2.82
2022-09-03T07:15:41.553Z,2.76
2022-09-03T07:16:41.590Z,2.51
2022-09-03T07:17:41.554Z,2.63
2022-09-03T07:20:41.569Z,2.56
2022-09-03T07:21:45.264Z,2.92
2022-09-03T07:22:41.543Z,3.15
2022-09-03T07:23:41.558Z,2.49
2022-09-03T07:24:41.574Z,2.90
2022-09-03T07:25:41.585Z,2.91
2022-09-03T07:26:41.589Z,3.01
2022-09-03T07:27:41.584Z,2.66
2022-09-03T07:28:41.581Z,2.89
2022-09-03T07:29:41.577Z,2.91
2022-09-03T07:30:44.644Z,3.29
2022-09-03T07:31:41.632Z,2.96
2022-09-03T07:32:41.581Z,3.24
2022-09-03T07:33:41.575Z,6.63
2022-09-03T07:34:41.599Z,4.66
2022-09-03T07:35:41.626Z,3.63
2022-09-03T07:36:41.602Z,3.94
2022-09-03T07:37:41.616Z,4.01
2022-09-03T07:38:41.614Z,3.43
2022-09-03T07:39:41.673Z,3.43
2022-09-03T07:40:41.619Z,2.93
2022-09-03T07:41:41.627Z,3.56
2022-09-03T07:42:41.628Z,3.24
2022-09-03T07:43:41.660Z,3.12
2022-09-03T07:44:41.606Z,2.81
2022-09-03T07:45:41.619Z,3.37
2022-09-03T07:46:41.692Z,3.20
2022-09-03T07:47:41.617Z,3.02
2022-09-03T07:48:41.656Z,3.82
2022-09-03T07:49:41.644Z,3.35
2022-09-03T07:50:41.634Z,3.88
2022-09-03T07:51:41.663Z,3.26
2022-09-03T07:52:41.641Z,2.95
2022-09-03T07:53:41.643Z,3.10
2022-09-03T07:54:41.649Z,3.04
2022-09-03T07:55:41.645Z,3.25
2022-09-03T07:56:41.649Z,3.36
2022-09-03T07:57:41.657Z,3.16
2022-09-03T07:59:41.667Z,3.10
2022-09-03T08:00:41.686Z,3.03
2022-09-03T08:01:41.944Z,2.78
2022-09-03T08:02:45.926Z,2.90
2022-09-03T08:03:41.680Z,2.92
2022-09-03T08:04:41.690Z,2.65
2022-09-03T08:05:41.666Z,3.58
2022-09-03T08:06:41.682Z,3.23
2022-09-03T08:07:44.873Z,3.51
2022-09-03T08:08:41.679Z,4.44
2022-09-03T08:09:41.677Z,9.17
2022-09-03T08:10:41.692Z,5.49
2022-09-03T08:11:41.704Z,8.40
2022-09-03T08:12:41.686Z,10.15
2022-09-03T08:13:41.679Z,4.52
2022-09-03T08:14:41.707Z,5.19
2022-09-03T08:16:41.695Z,3.08
2022-09-03T08:17:41.706Z,3.24
2022-09-03T08:18:41.703Z,2.94
2022-09-03T08:19:41.707Z,3.83
2022-09-03T08:20:41.732Z,3.30
2022-09-03T08:21:41.725Z,3.52
2022-09-03T08:22:41.705Z,3.06
2022-09-03T08:23:41.703Z,3.16
2022-09-03T08:25:41.734Z,2.79
2022-09-03T08:26:41.740Z,3.27
2022-09-03T08:27:41.734Z,3.02
2022-09-03T08:28:41.735Z,2.56
2022-09-03T08:29:41.736Z,3.27
2022-09-03T08:30:41.734Z,2.50
2022-09-03T08:31:41.963Z,3.14
2022-09-03T08:32:41.754Z,3.60
2022-09-03T08:33:41.764Z,3.64
2022-09-03T08:34:41.762Z,3.18
2022-09-03T08:35:41.767Z,3.82
2022-09-03T08:36:41.751Z,2.93
2022-09-03T08:37:41.746Z,3.60
2022-09-03T08:38:41.782Z,3.54
2022-09-03T08:39:41.891Z,3.16
2022-09-03T08:40:41.769Z,2.83
2022-09-03T08:41:41.779Z,3.00
2022-09-03T08:42:41.762Z,2.98
2022-09-03T08:43:41.777Z,3.53
2022-09-03T08:44:45.093Z,3.40
2022-09-03T08:45:41.776Z,2.67
2022-09-03T08:46:41.821Z,3.28
2022-09-03T08:47:41.794Z,3.50
2022-09-03T08:48:41.793Z,2.76
2022-09-03T08:49:41.790Z,3.12
2022-09-03T08:50:41.777Z,2.97
2022-09-03T08:51:41.803Z,3.09
2022-09-03T08:52:41.806Z,2.93
2022-09-03T08:53:41.784Z,2.78
2022-09-03T08:54:41.806Z,3.99
2022-09-03T08:55:41.816Z,3.46
2022-09-03T08:56:41.805Z,3.76
2022-09-03T08:57:41.820Z,3.19
2022-09-03T08:58:41.807Z,2.93
2022-09-03T08:59:41.827Z,3.21
2022-09-03T09:00:41.831Z,3.37
2022-09-03T09:01:42.022Z,3.48
2022-09-03T09:02:42.031Z,3.39
2022-09-03T09:03:41.833Z,2.57
2022-09-03T09:04:41.827Z,2.97
2022-09-03T09:05:41.824Z,2.96
2022-09-03T09:06:41.822Z,3.02
2022-09-03T09:07:41.832Z,2.44
2022-09-03T09:08:41.846Z,2.72
2022-09-03T09:09:41.840Z,2.56
2022-09-03T09:10:41.874Z,3.19
2022-09-03T09:11:41.836Z,3.43
2022-09-03T09:12:45.871Z,2.66
2022-09-03T09:13:41.864Z,2.82
2022-09-03T09:14:41.852Z,3.17
2022-09-03T09:15:41.916Z,2.72
2022-09-03T09:16:41.867Z,2.84
2022-09-03T09:17:41.857Z,2.82
2022-09-03T09:18:41.849Z,3.41
2022-09-03T09:19:41.877Z,3.48
2022-09-03T09:20:41.877Z,2.94
2022-09-03T09:21:45.318Z,3.72
2022-09-03T09:22:41.884Z,3.78
2022-09-03T09:23:41.874Z,3.81
2022-09-03T09:24:41.894Z,4.07
2022-09-03T09:25:41.888Z,3.51
2022-09-03T09:26:41.891Z,3.82
2022-09-03T09:27:41.895Z,4.38
2022-09-03T09:28:41.889Z,3.84
2022-09-03T09:29:41.888Z,3.80
2022-09-03T09:30:41.907Z,3.60
2022-09-03T09:31:42.023Z,3.40
2022-09-03T09:32:41.898Z,3.92
2022-09-03T09:33:41.936Z,3.43
2022-09-03T09:34:41.911Z,3.37
2022-09-03T09:35:41.917Z,3.40
2022-09-03T09:36:41.930Z,3.75
2022-09-03T09:37:41.906Z,4.13
2022-09-03T09:38:41.920Z,3.74
2022-09-03T09:39:41.973Z,3.77
2022-09-03T09:40:45.061Z,3.27
2022-09-03T09:41:41.933Z,3.08
2022-09-03T09:42:41.946Z,2.86
2022-09-03T09:43:41.934Z,2.44
2022-09-03T09:44:41.952Z,2.72
2022-09-03T09:45:41.956Z,2.93
2022-09-03T09:46:41.996Z,2.73
2022-09-03T09:47:41.997Z,2.67
2022-09-03T09:48:42.529Z,2.80
2022-09-03T09:49:41.940Z,2.89
2022-09-03T09:50:42.000Z,3.00
2022-09-03T09:51:41.956Z,2.62
2022-09-03T09:52:41.973Z,2.87
2022-09-03T09:53:41.957Z,2.89
2022-09-03T09:54:41.964Z,2.65
2022-09-03T09:55:41.972Z,2.96
2022-09-03T09:56:41.988Z,2.53
2022-09-03T09:57:41.980Z,2.89
2022-09-03T09:58:45.546Z,3.02
2022-09-03T09:59:41.999Z,3.00
2022-09-03T10:00:41.983Z,2.83
2022-09-03T10:01:42.066Z,3.24
2022-09-03T10:02:42.033Z,2.60
2022-09-03T10:03:41.972Z,2.79
2022-09-03T10:04:41.989Z,2.50
2022-09-03T10:05:41.983Z,2.80
2022-09-03T10:06:41.990Z,2.58
2022-09-03T10:07:42.010Z,2.45
2022-09-03T10:08:42.032Z,2.70
2022-09-03T10:09:42.004Z,2.35
2022-09-03T10:10:42.014Z,2.50
2022-09-03T10:11:42.005Z,2.42
2022-09-03T10:12:42.004Z,3.12
2022-09-03T10:13:42.017Z,2.70
2022-09-03T10:14:42.022Z,2.70
2022-09-03T10:15:42.162Z,3.05
2022-09-03T10:16:42.029Z,3.37
2022-09-03T10:17:42.036Z,2.71
2022-09-03T10:18:42.025Z,2.14
2022-09-03T10:19:42.054Z,2.52
2022-09-03T10:20:42.038Z,2.95
2022-09-03T10:21:42.041Z,2.16
2022-09-03T10:22:56.573Z,2.86
2022-09-03T10:23:42.040Z,2.82
2022-09-03T10:24:42.054Z,2.85
2022-09-03T10:25:42.091Z,2.56
2022-09-03T10:26:42.042Z,3.13
2022-09-03T10:27:42.049Z,2.47
2022-09-03T10:28:42.056Z,3.43
2022-09-03T10:30:42.093Z,2.55
2022-09-03T10:31:42.046Z,2.79
2022-09-03T10:32:46.275Z,3.16
2022-09-03T10:33:42.062Z,3.65
2022-09-03T10:34:42.078Z,3.57
2022-09-03T10:35:45.676Z,3.37
2022-09-03T10:36:42.072Z,3.40
2022-09-03T10:37:42.067Z,3.30
2022-09-03T10:38:42.082Z,3.46
2022-09-03T10:39:43.056Z,3.44
2022-09-03T10:40:42.089Z,3.24
2022-09-03T10:41:42.093Z,3.83
2022-09-03T10:42:42.085Z,3.72
2022-09-03T10:43:42.081Z,2.98
2022-09-03T10:44:42.099Z,2.35
2022-09-03T10:45:42.188Z,3.07
2022-09-03T10:46:42.181Z,2.91
2022-09-03T10:47:42.091Z,2.81
2022-09-03T10:48:42.103Z,2.57
2022-09-03T10:49:42.117Z,2.73
2022-09-03T10:50:42.121Z,3.03
2022-09-03T10:51:46.225Z,2.93
2022-09-03T10:52:42.158Z,2.72
2022-09-03T10:53:42.112Z,2.68
2022-09-03T10:54:42.147Z,3.01
2022-09-03T10:55:42.115Z,2.84
2022-09-03T10:56:42.115Z,3.94
2022-09-03T10:57:42.124Z,9.58
2022-09-03T10:58:42.162Z,15.40
2022-09-03T10:59:42.171Z,16.22
2022-09-03T11:00:42.145Z,6.34
2022-09-03T11:01:42.204Z,3.10
2022-09-03T11:02:42.171Z,2.72
2022-09-03T11:03:42.157Z,2.75
2022-09-03T11:04:42.175Z,2.62
2022-09-03T11:05:42.150Z,7.66
2022-09-03T11:06:42.170Z,7.33
2022-09-03T11:07:42.165Z,15.03
2022-09-03T11:08:42.153Z,80.78
2022-09-03T11:09:42.164Z,58.21
2022-09-03T11:10:42.188Z,40.15
2022-09-03T11:11:42.158Z,197.03
2022-09-03T11:12:45.871Z,51.65
2022-09-03T11:13:42.168Z,17.95
2022-09-03T11:14:42.163Z,10.06
2022-09-03T11:15:42.223Z,9.94
2022-09-03T11:16:42.175Z,6.69
2022-09-03T11:17:42.193Z,6.18
2022-09-03T11:18:42.173Z,6.53
2022-09-03T11:19:42.215Z,6.23
2022-09-03T11:20:42.181Z,6.59
2022-09-03T11:21:42.176Z,6.03
2022-09-03T11:22:42.203Z,11.58
2022-09-03T11:23:42.196Z,9.52
2022-09-03T11:24:42.219Z,9.83
2022-09-03T11:25:42.247Z,10.52
2022-09-03T11:26:42.204Z,12.47
2022-09-03T11:27:42.241Z,7.33
2022-09-03T11:28:42.220Z,8.33
2022-09-03T11:29:42.310Z,12.79
2022-09-03T11:30:42.289Z,5.01
2022-09-03T11:31:42.236Z,4.98
2022-09-03T11:32:42.207Z,3.79
2022-09-03T11:33:42.219Z,6.74
2022-09-03T11:34:42.327Z,5.84
2022-09-03T11:35:42.233Z,5.30
2022-09-03T11:36:47.325Z,4.43
2022-09-03T11:37:42.246Z,4.43
2022-09-03T11:38:42.245Z,9.90
2022-09-03T11:39:42.266Z,15.56
2022-09-03T11:40:42.234Z,13.01
2022-09-03T11:41:42.248Z,5.21
2022-09-03T11:42:42.244Z,3.44
2022-09-03T11:43:42.269Z,4.25
2022-09-03T11:44:47.980Z,4.45
2022-09-03T11:45:42.344Z,2.70
2022-09-03T11:46:42.245Z,4.30
2022-09-03T11:47:42.253Z,3.54
2022-09-03T11:48:42.255Z,4.68
2022-09-03T11:49:46.078Z,3.21
2022-09-03T11:50:42.280Z,11.05
2022-09-03T11:51:42.272Z,4.97
2022-09-03T11:52:42.261Z,8.91
2022-09-03T11:53:42.276Z,9.53
2022-09-03T11:54:42.291Z,9.60
2022-09-03T11:55:43.747Z,141.79
2022-09-03T11:56:42.282Z,114.13
2022-09-03T11:57:42.289Z,94.11
2022-09-03T11:58:42.286Z,136.87
2022-09-03T11:59:42.304Z,180.99
2022-09-03T12:00:42.349Z,57.00
2022-09-03T12:01:42.280Z,67.01
2022-09-03T12:02:42.333Z,101.49
2022-09-03T12:03:42.315Z,115.42
2022-09-03T12:04:42.349Z,34.48
2022-09-03T12:05:42.321Z,29.91
2022-09-03T12:06:42.309Z,69.85
2022-09-03T12:07:42.305Z,54.52
2022-09-03T12:08:42.321Z,41.34
2022-09-03T12:09:42.314Z,44.76
2022-09-03T12:10:42.334Z,32.77
2022-09-03T12:11:42.314Z,18.41
2022-09-03T12:13:42.333Z,9.06
2022-09-03T12:14:42.349Z,11.92
2022-09-03T12:15:42.399Z,5.15
2022-09-03T12:16:42.322Z,6.21
2022-09-03T12:17:42.336Z,16.47
2022-09-03T12:18:42.355Z,8.07
2022-09-03T12:19:42.336Z,6.72
2022-09-03T12:20:42.367Z,6.81
2022-09-03T12:21:42.391Z,8.05
2022-09-03T12:22:42.488Z,3.67
2022-09-03T12:23:42.367Z,5.31
2022-09-03T12:24:42.366Z,10.86
2022-09-03T12:25:42.352Z,5.75
2022-09-03T12:26:46.306Z,2.84
2022-09-03T12:27:42.361Z,2.55
2022-09-03T12:28:44.035Z,2.75
2022-09-03T12:29:42.378Z,2.62
2022-09-03T12:30:42.410Z,2.56
2022-09-03T12:31:43.166Z,2.30
2022-09-03T12:32:42.403Z,2.63
2022-09-03T12:33:42.399Z,2.07
2022-09-03T12:34:42.386Z,2.82
2022-09-03T12:35:58.527Z,2.41
2022-09-03T12:36:42.386Z,1.93
2022-09-03T12:38:08.142Z,2.38
2022-09-03T12:39:09.859Z,2.96
2022-09-03T12:40:07.725Z,2.45
2022-09-03T12:41:26.885Z,2.81
2022-09-03T12:41:42.440Z,1.85
2022-09-03T12:42:42.399Z,1.87
2022-09-03T12:43:45.090Z,2.07
2022-09-03T12:44:42.405Z,2.08
2022-09-03T12:46:10.439Z,2.04
2022-09-03T12:46:42.440Z,1.92
2022-09-03T12:47:42.441Z,2.13
2022-09-03T12:48:43.984Z,2.13
2022-09-03T12:49:42.754Z,2.33
2022-09-03T12:51:53.596Z,1.92
2022-09-03T12:52:42.438Z,2.07
2022-09-03T12:53:42.433Z,2.13
2022-09-03T12:54:42.465Z,2.01
2022-09-03T12:55:42.450Z,1.82
2022-09-03T12:57:42.453Z,2.05
2022-09-03T12:58:42.456Z,1.85
2022-09-03T12:59:42.435Z,2.34
2022-09-03T13:00:42.442Z,2.58
2022-09-03T13:01:42.531Z,2.24
2022-09-03T13:02:42.454Z,2.63
2022-09-03T13:03:46.688Z,1.97
2022-09-03T13:04:42.459Z,2.16
2022-09-03T13:05:42.457Z,2.28
2022-09-03T13:06:42.460Z,2.04
2022-09-03T13:07:44.932Z,2.34
2022-09-03T13:08:42.465Z,2.45
2022-09-03T13:09:42.489Z,2.25
2022-09-03T13:10:42.470Z,2.25
2022-09-03T13:11:42.484Z,1.72
2022-09-03T13:12:42.483Z,1.79
2022-09-03T13:13:42.476Z,2.00
2022-09-03T13:14:42.519Z,1.86
2022-09-03T13:15:42.494Z,2.00
2022-09-03T13:16:42.552Z,2.40
2022-09-03T13:17:42.510Z,1.81
2022-09-03T13:18:42.496Z,2.03
2022-09-03T13:19:42.500Z,1.79
2022-09-03T13:20:42.492Z,1.86
2022-09-03T13:21:42.513Z,1.90
2022-09-03T13:22:42.495Z,1.77
2022-09-03T13:23:42.497Z,2.14
2022-09-03T13:24:42.515Z,2.05
2022-09-03T13:25:42.506Z,1.86
2022-09-03T13:26:42.506Z,1.56
2022-09-03T13:27:42.514Z,1.98
2022-09-03T13:28:42.511Z,2.35
2022-09-03T13:29:42.548Z,2.41
2022-09-03T13:30:42.580Z,2.03
2022-09-03T13:31:42.515Z,2.76
2022-09-03T13:32:42.526Z,2.09
2022-09-03T13:33:42.596Z,1.47
2022-09-03T13:34:42.550Z,1.75
2022-09-03T13:35:42.545Z,2.22
2022-09-03T13:36:42.552Z,2.12
2022-09-03T13:37:42.554Z,2.14
2022-09-03T13:38:42.542Z,1.84
2022-09-03T13:39:42.663Z,1.81
2022-09-03T13:40:46.968Z,2.03
2022-09-03T13:41:42.554Z,2.07
2022-09-03T13:42:42.571Z,1.75
2022-09-03T13:43:42.572Z,1.45
2022-09-03T13:44:42.562Z,1.96
2022-09-03T13:45:42.662Z,1.86
2022-09-03T13:46:42.563Z,2.21
2022-09-03T13:47:42.594Z,1.71
2022-09-03T13:48:43.242Z,1.74
2022-09-03T13:49:42.599Z,2.29
2022-09-03T13:50:42.565Z,2.26
2022-09-03T13:51:42.584Z,2.21
2022-09-03T13:52:42.589Z,2.09
2022-09-03T13:53:42.583Z,1.88
2022-09-03T13:54:49.014Z,2.21
2022-09-03T13:55:42.581Z,2.17
2022-09-03T13:56:42.613Z,1.89
2022-09-03T13:57:42.593Z,2.15
2022-09-03T13:58:42.610Z,2.28
2022-09-03T13:59:42.592Z,1.99
2022-09-03T14:00:42.654Z,1.92
2022-09-03T14:01:42.743Z,1.98
2022-09-03T14:02:42.669Z,1.60
2022-09-03T14:03:45.668Z,2.03